Página principal
METAR-TAF:

METAR-TAF

Aeroportos :

Bratsk, Rússia

latitude: 56-22-15N, longitude: 101-41-55E, altura: 490 m

Observação actual do tempo

O boletim foi feito há 23 minutos, às 19:00 UTC
Vento 8 kt de sudoeste, variando entre su-sudoeste e oeste
Temperatura -10°C
Humidade 85%
Pressão 1023 hPa
Visibilidade: 8000 m

METAR: UIBB 141900Z AUTO 23004MPS 200V260 8000 // ///018/// M10/M12 Q1023 RMK QFE724/0966

Hora: 03:23 (19:23 UTC)

Previsão

O boletim foi feito há 2 horas e 23 minutos, às 17:00 UTC
Previsão válida de 14 às 18 UTC a 15 às 18 UTC
Vento 12 kt de sudoeste com rajadas de 25 kt
Visibilidade 10 km ou mais
Nuvens fragmentadasa uma altura de 1100 ft, Cumulonimbus.
Neve baixa levantada pelo vento
Temporariamente
de 14 às 18 UTC a 15 às 15 UTC
Visibilidade: 2900 m
a uma altura de 900 ft
aguaceiros fracos de neve, Neve levantada pelo vento

TAF: UIBB 141700Z 1418/1518 22006G13MPS 9999 DRSN BKN011CB TEMPO 1418/1515 2900 -SHSN BLSN VV009

Observações e previsões do tempo de mais de 4000 aeroportos (mensagens METAR e TAF).

As estações disponíveis são os pontos amarelos e vermelhos sobre o mapa.

Mova o rato sobre o mapa para ver o nome da estação.

Depois clique no ponto para visualizar as observações e previsões meteorológicas.

Para alterar o mapa : clique nos botões verdes com uma cruz preta para aumentar o zoom; no botão verde com uma pitada de zoom; ou nas setas verdes para mapas adjacentes.


METAR-TAF: